sensor_id;sensor_type;location;lat;lon;timestamp;temperature;humidity
16172;DHT22;8192;53.596;10.166;2023-07-08T00:02:11;13.20;93.80
16172;DHT22;8192;53.596;10.166;2023-07-08T00:04:39;13.20;94.10
16172;DHT22;8192;53.596;10.166;2023-07-08T00:07:10;13.10;94.10
16172;DHT22;8192;53.596;10.166;2023-07-08T00:09:39;13.10;94.20
16172;DHT22;8192;53.596;10.166;2023-07-08T00:12:10;13.10;94.20
16172;DHT22;8192;53.596;10.166;2023-07-08T00:14:37;13.00;94.50
16172;DHT22;8192;53.596;10.166;2023-07-08T00:17:10;12.90;94.60
16172;DHT22;8192;53.596;10.166;2023-07-08T00:19:38;12.90;94.70
16172;DHT22;8192;53.596;10.166;2023-07-08T00:22:10;12.80;94.80
16172;DHT22;8192;53.596;10.166;2023-07-08T00:24:39;12.80;95.20
16172;DHT22;8192;53.596;10.166;2023-07-08T00:27:09;12.80;95.20
16172;DHT22;8192;53.596;10.166;2023-07-08T00:29:37;12.70;95.10
16172;DHT22;8192;53.596;10.166;2023-07-08T00:32:10;12.70;95.50
16172;DHT22;8192;53.596;10.166;2023-07-08T00:34:37;12.70;95.40
16172;DHT22;8192;53.596;10.166;2023-07-08T00:37:04;12.70;95.30
16172;DHT22;8192;53.596;10.166;2023-07-08T00:39:31;12.60;95.60
16172;DHT22;8192;53.596;10.166;2023-07-08T00:42:00;12.60;96.50
16172;DHT22;8192;53.596;10.166;2023-07-08T00:44:28;12.60;96.30
16172;DHT22;8192;53.596;10.166;2023-07-08T00:47:02;12.50;95.90
16172;DHT22;8192;53.596;10.166;2023-07-08T00:49:36;12.50;95.80
16172;DHT22;8192;53.596;10.166;2023-07-08T00:52:21;12.40;95.90
16172;DHT22;8192;53.596;10.166;2023-07-08T00:54:50;12.30;96.00
16172;DHT22;8192;53.596;10.166;2023-07-08T00:57:20;12.30;96.30
16172;DHT22;8192;53.596;10.166;2023-07-08T00:59:52;12.30;96.50
16172;DHT22;8192;53.596;10.166;2023-07-08T01:02:22;12.20;96.60
16172;DHT22;8192;53.596;10.166;2023-07-08T01:04:52;12.20;96.90
16172;DHT22;8192;53.596;10.166;2023-07-08T01:07:20;12.20;96.90
16172;DHT22;8192;53.596;10.166;2023-07-08T01:09:51;12.10;97.00
16172;DHT22;8192;53.596;10.166;2023-07-08T01:12:23;12.10;97.10
16172;DHT22;8192;53.596;10.166;2023-07-08T01:14:52;12.20;97.10
16172;DHT22;8192;53.596;10.166;2023-07-08T01:17:21;12.10;96.90
16172;DHT22;8192;53.596;10.166;2023-07-08T01:19:49;12.10;97.20
16172;DHT22;8192;53.596;10.166;2023-07-08T01:22:18;12.00;97.50
16172;DHT22;8192;53.596;10.166;2023-07-08T01:24:46;12.00;97.50
16172;DHT22;8192;53.596;10.166;2023-07-08T01:27:16;12.00;97.40
16172;DHT22;8192;53.596;10.166;2023-07-08T01:29:44;12.00;97.50
16172;DHT22;8192;53.596;10.166;2023-07-08T01:32:12;12.00;97.60
16172;DHT22;8192;53.596;10.166;2023-07-08T01:34:44;11.90;97.80
16172;DHT22;8192;53.596;10.166;2023-07-08T01:37:32;11.90;97.80
16172;DHT22;8192;53.596;10.166;2023-07-08T01:40:14;11.90;97.90
16172;DHT22;8192;53.596;10.166;2023-07-08T01:42:41;11.90;97.80
16172;DHT22;8192;53.596;10.166;2023-07-08T01:45:11;11.80;97.80
16172;DHT22;8192;53.596;10.166;2023-07-08T01:47:40;11.80;97.90
16172;DHT22;8192;53.596;10.166;2023-07-08T01:50:08;11.80;97.90
16172;DHT22;8192;53.596;10.166;2023-07-08T01:52:38;11.80;98.00
16172;DHT22;8192;53.596;10.166;2023-07-08T01:55:06;11.70;98.00
16172;DHT22;8192;53.596;10.166;2023-07-08T01:57:33;11.70;98.00
16172;DHT22;8192;53.596;10.166;2023-07-08T02:00:00;11.70;98.10
16172;DHT22;8192;53.596;10.166;2023-07-08T02:02:27;11.70;98.10
16172;DHT22;8192;53.596;10.166;2023-07-08T02:04:54;11.70;98.10
16172;DHT22;8192;53.596;10.166;2023-07-08T02:07:21;11.70;98.10
16172;DHT22;8192;53.596;10.166;2023-07-08T02:09:49;11.70;98.40
16172;DHT22;8192;53.596;10.166;2023-07-08T02:12:16;11.60;98.50
16172;DHT22;8192;53.596;10.166;2023-07-08T02:14:41;11.70;98.50
16172;DHT22;8192;53.596;10.166;2023-07-08T02:17:08;11.60;98.50
16172;DHT22;8192;53.596;10.166;2023-07-08T02:19:35;11.60;98.80
16172;DHT22;8192;53.596;10.166;2023-07-08T02:22:02;11.60;98.80
16172;DHT22;8192;53.596;10.166;2023-07-08T02:24:30;11.60;98.80
16172;DHT22;8192;53.596;10.166;2023-07-08T02:26:58;11.60;98.70
16172;DHT22;8192;53.596;10.166;2023-07-08T02:29:26;11.60;98.60
16172;DHT22;8192;53.596;10.166;2023-07-08T02:31:53;11.60;99.10
16172;DHT22;8192;53.596;10.166;2023-07-08T02:34:20;11.60;99.10
16172;DHT22;8192;53.596;10.166;2023-07-08T02:36:47;11.60;98.80
16172;DHT22;8192;53.596;10.166;2023-07-08T02:39:14;11.50;98.80
16172;DHT22;8192;53.596;10.166;2023-07-08T02:41:41;11.50;98.90
16172;DHT22;8192;53.596;10.166;2023-07-08T02:44:09;11.50;99.00
16172;DHT22;8192;53.596;10.166;2023-07-08T02:46:36;11.50;99.10
16172;DHT22;8192;53.596;10.166;2023-07-08T02:49:03;11.50;99.10
16172;DHT22;8192;53.596;10.166;2023-07-08T02:51:31;11.50;98.90
16172;DHT22;8192;53.596;10.166;2023-07-08T02:53:58;11.50;98.90
16172;DHT22;8192;53.596;10.166;2023-07-08T02:56:25;11.50;98.90
16172;DHT22;8192;53.596;10.166;2023-07-08T02:58:53;11.50;99.10
16172;DHT22;8192;53.596;10.166;2023-07-08T03:01:21;11.50;99.40
16172;DHT22;8192;53.596;10.166;2023-07-08T03:03:48;11.50;99.50
16172;DHT22;8192;53.596;10.166;2023-07-08T03:06:15;11.50;99.20
16172;DHT22;8192;53.596;10.166;2023-07-08T03:08:42;11.40;99.10
16172;DHT22;8192;53.596;10.166;2023-07-08T03:11:10;11.40;99.70
16172;DHT22;8192;53.596;10.166;2023-07-08T03:13:37;11.40;99.50
16172;DHT22;8192;53.596;10.166;2023-07-08T03:16:04;11.50;99.50
16172;DHT22;8192;53.596;10.166;2023-07-08T03:18:40;11.50;99.50
16172;DHT22;8192;53.596;10.166;2023-07-08T03:21:12;11.50;99.50
16172;DHT22;8192;53.596;10.166;2023-07-08T03:23:39;11.50;99.50
16172;DHT22;8192;53.596;10.166;2023-07-08T03:26:06;11.60;99.60
16172;DHT22;8192;53.596;10.166;2023-07-08T03:28:33;11.50;99.60
16172;DHT22;8192;53.596;10.166;2023-07-08T03:31:01;11.60;99.60
16172;DHT22;8192;53.596;10.166;2023-07-08T03:33:28;11.60;99.60
16172;DHT22;8192;53.596;10.166;2023-07-08T03:35:56;11.60;99.60
16172;DHT22;8192;53.596;10.166;2023-07-08T03:38:23;11.70;99.70
16172;DHT22;8192;53.596;10.166;2023-07-08T03:40:51;11.70;99.70
16172;DHT22;8192;53.596;10.166;2023-07-08T03:43:18;11.80;99.70
16172;DHT22;8192;53.596;10.166;2023-07-08T03:45:45;11.80;99.40
16172;DHT22;8192;53.596;10.166;2023-07-08T03:48:12;11.90;99.50
16172;DHT22;8192;53.596;10.166;2023-07-08T03:50:39;11.90;99.60
16172;DHT22;8192;53.596;10.166;2023-07-08T03:53:09;12.00;99.60
16172;DHT22;8192;53.596;10.166;2023-07-08T03:55:36;12.10;99.50
16172;DHT22;8192;53.596;10.166;2023-07-08T03:58:03;12.20;99.00
16172;DHT22;8192;53.596;10.166;2023-07-08T04:00:30;12.40;98.80
16172;DHT22;8192;53.596;10.166;2023-07-08T04:02:57;12.50;98.70
16172;DHT22;8192;53.596;10.166;2023-07-08T04:05:25;12.70;99.00
16172;DHT22;8192;53.596;10.166;2023-07-08T04:07:53;13.30;98.80
16172;DHT22;8192;53.596;10.166;2023-07-08T04:10:21;14.00;97.20
16172;DHT22;8192;53.596;10.166;2023-07-08T04:12:48;14.50;95.10
16172;DHT22;8192;53.596;10.166;2023-07-08T04:15:15;15.30;92.00
16172;DHT22;8192;53.596;10.166;2023-07-08T04:17:44;16.30;90.50
16172;DHT22;8192;53.596;10.166;2023-07-08T04:20:15;17.30;84.40
16172;DHT22;8192;53.596;10.166;2023-07-08T04:22:43;18.10;80.30
16172;DHT22;8192;53.596;10.166;2023-07-08T04:25:11;18.80;76.00
16172;DHT22;8192;53.596;10.166;2023-07-08T04:27:41;19.50;71.70
16172;DHT22;8192;53.596;10.166;2023-07-08T04:30:18;19.90;71.40
16172;DHT22;8192;53.596;10.166;2023-07-08T04:32:47;20.40;70.50
16172;DHT22;8192;53.596;10.166;2023-07-08T04:35:14;20.90;65.80
16172;DHT22;8192;53.596;10.166;2023-07-08T04:37:41;21.00;63.60
16172;DHT22;8192;53.596;10.166;2023-07-08T04:40:17;21.10;65.20
16172;DHT22;8192;53.596;10.166;2023-07-08T04:42:47;21.40;62.50
16172;DHT22;8192;53.596;10.166;2023-07-08T04:45:16;21.70;62.20
16172;DHT22;8192;53.596;10.166;2023-07-08T04:47:43;21.90;60.00
16172;DHT22;8192;53.596;10.166;2023-07-08T04:50:17;22.00;58.90
16172;DHT22;8192;53.596;10.166;2023-07-08T04:52:44;22.20;60.10
16172;DHT22;8192;53.596;10.166;2023-07-08T04:55:12;22.40;58.90
16172;DHT22;8192;53.596;10.166;2023-07-08T04:57:39;22.60;58.50
16172;DHT22;8192;53.596;10.166;2023-07-08T05:00:14;22.80;58.90
16172;DHT22;8192;53.596;10.166;2023-07-08T05:02:42;23.10;56.90
16172;DHT22;8192;53.596;10.166;2023-07-08T05:05:09;23.30;55.40
16172;DHT22;8192;53.596;10.166;2023-07-08T05:07:36;23.30;54.40
16172;DHT22;8192;53.596;10.166;2023-07-08T05:10:04;23.10;55.00
16172;DHT22;8192;53.596;10.166;2023-07-08T05:12:31;23.20;54.80
16172;DHT22;8192;53.596;10.166;2023-07-08T05:14:58;23.50;54.60
16172;DHT22;8192;53.596;10.166;2023-07-08T05:17:27;23.60;54.60
16172;DHT22;8192;53.596;10.166;2023-07-08T05:19:55;23.70;54.20
16172;DHT22;8192;53.596;10.166;2023-07-08T05:22:23;24.20;52.10
16172;DHT22;8192;53.596;10.166;2023-07-08T05:24:51;24.40;50.80
16172;DHT22;8192;53.596;10.166;2023-07-08T05:27:21;24.00;52.60
16172;DHT22;8192;53.596;10.166;2023-07-08T05:29:48;24.20;53.30
16172;DHT22;8192;53.596;10.166;2023-07-08T05:32:15;24.60;51.50
16172;DHT22;8192;53.596;10.166;2023-07-08T05:34:44;24.20;51.90
16172;DHT22;8192;53.596;10.166;2023-07-08T05:37:11;24.20;51.40
16172;DHT22;8192;53.596;10.166;2023-07-08T05:39:39;24.40;51.90
16172;DHT22;8192;53.596;10.166;2023-07-08T05:42:06;24.70;52.10
16172;DHT22;8192;53.596;10.166;2023-07-08T05:44:33;25.00;49.70
16172;DHT22;8192;53.596;10.166;2023-07-08T05:47:00;25.20;50.40
16172;DHT22;8192;53.596;10.166;2023-07-08T05:49:27;25.20;50.30
16172;DHT22;8192;53.596;10.166;2023-07-08T05:51:56;25.30;49.10
16172;DHT22;8192;53.596;10.166;2023-07-08T05:54:23;25.50;48.60
16172;DHT22;8192;53.596;10.166;2023-07-08T05:56:50;25.00;49.70
16172;DHT22;8192;53.596;10.166;2023-07-08T05:59:17;25.20;48.80
16172;DHT22;8192;53.596;10.166;2023-07-08T06:01:44;25.40;48.50
16172;DHT22;8192;53.596;10.166;2023-07-08T06:04:11;25.40;49.60
16172;DHT22;8192;53.596;10.166;2023-07-08T06:06:38;25.70;49.00
16172;DHT22;8192;53.596;10.166;2023-07-08T06:09:06;25.80;49.90
16172;DHT22;8192;53.596;10.166;2023-07-08T06:11:34;26.00;48.10
16172;DHT22;8192;53.596;10.166;2023-07-08T06:14:01;26.20;46.50
16172;DHT22;8192;53.596;10.166;2023-07-08T06:16:29;26.10;46.40
16172;DHT22;8192;53.596;10.166;2023-07-08T06:18:57;25.80;46.30
16172;DHT22;8192;53.596;10.166;2023-07-08T06:21:24;26.00;48.80
16172;DHT22;8192;53.596;10.166;2023-07-08T06:23:51;26.40;46.40
16172;DHT22;8192;53.596;10.166;2023-07-08T06:26:19;26.20;45.70
16172;DHT22;8192;53.596;10.166;2023-07-08T06:28:46;25.70;47.60
16172;DHT22;8192;53.596;10.166;2023-07-08T06:31:13;26.00;49.40
16172;DHT22;8192;53.596;10.166;2023-07-08T06:33:40;26.80;46.60
16172;DHT22;8192;53.596;10.166;2023-07-08T06:36:07;27.10;44.00
16172;DHT22;8192;53.596;10.166;2023-07-08T06:38:34;26.80;44.80
16172;DHT22;8192;53.596;10.166;2023-07-08T06:41:02;26.70;45.00
16172;DHT22;8192;53.596;10.166;2023-07-08T06:43:30;26.20;46.10
16172;DHT22;8192;53.596;10.166;2023-07-08T06:45:57;26.10;46.20
16172;DHT22;8192;53.596;10.166;2023-07-08T06:48:24;26.00;46.20
16172;DHT22;8192;53.596;10.166;2023-07-08T06:50:51;26.30;46.60
16172;DHT22;8192;53.596;10.166;2023-07-08T06:53:19;26.20;47.30
16172;DHT22;8192;53.596;10.166;2023-07-08T06:55:46;26.70;45.80
16172;DHT22;8192;53.596;10.166;2023-07-08T06:58:13;27.20;46.70
16172;DHT22;8192;53.596;10.166;2023-07-08T07:00:46;27.70;44.80
16172;DHT22;8192;53.596;10.166;2023-07-08T07:03:13;28.30;42.80
16172;DHT22;8192;53.596;10.166;2023-07-08T07:05:40;28.40;42.20
16172;DHT22;8192;53.596;10.166;2023-07-08T07:08:08;28.30;43.20
16172;DHT22;8192;53.596;10.166;2023-07-08T07:10:35;28.00;43.40
16172;DHT22;8192;53.596;10.166;2023-07-08T07:13:02;28.40;44.70
16172;DHT22;8192;53.596;10.166;2023-07-08T07:15:29;28.90;44.80
16172;DHT22;8192;53.596;10.166;2023-07-08T07:17:59;29.20;41.10
16172;DHT22;8192;53.596;10.166;2023-07-08T07:20:26;29.20;42.40
16172;DHT22;8192;53.596;10.166;2023-07-08T07:22:54;29.40;41.20
16172;DHT22;8192;53.596;10.166;2023-07-08T07:25:21;29.40;41.70
16172;DHT22;8192;53.596;10.166;2023-07-08T07:27:48;29.40;40.10
16172;DHT22;8192;53.596;10.166;2023-07-08T07:30:15;29.40;41.10
16172;DHT22;8192;53.596;10.166;2023-07-08T07:32:43;29.50;40.60
16172;DHT22;8192;53.596;10.166;2023-07-08T07:35:12;29.40;40.80
16172;DHT22;8192;53.596;10.166;2023-07-08T07:37:43;29.80;40.10
16172;DHT22;8192;53.596;10.166;2023-07-08T07:40:12;30.00;40.60
16172;DHT22;8192;53.596;10.166;2023-07-08T07:42:42;30.10;39.10
16172;DHT22;8192;53.596;10.166;2023-07-08T07:45:10;30.20;39.30
16172;DHT22;8192;53.596;10.166;2023-07-08T07:47:37;30.40;38.70
16172;DHT22;8192;53.596;10.166;2023-07-08T07:50:06;30.70;37.60
16172;DHT22;8192;53.596;10.166;2023-07-08T07:52:35;30.60;38.20
16172;DHT22;8192;53.596;10.166;2023-07-08T07:55:03;30.30;38.80
16172;DHT22;8192;53.596;10.166;2023-07-08T07:57:30;30.60;38.30
16172;DHT22;8192;53.596;10.166;2023-07-08T07:59:57;30.10;39.30
16172;DHT22;8192;53.596;10.166;2023-07-08T08:02:24;30.40;38.70
16172;DHT22;8192;53.596;10.166;2023-07-08T08:04:51;30.40;38.60
16172;DHT22;8192;53.596;10.166;2023-07-08T08:07:18;30.50;39.80
16172;DHT22;8192;53.596;10.166;2023-07-08T08:09:46;31.10;38.10
16172;DHT22;8192;53.596;10.166;2023-07-08T08:12:13;31.30;36.30
16172;DHT22;8192;53.596;10.166;2023-07-08T08:14:40;31.00;37.30
16172;DHT22;8192;53.596;10.166;2023-07-08T08:17:07;31.00;37.50
16172;DHT22;8192;53.596;10.166;2023-07-08T08:19:34;31.30;37.60
16172;DHT22;8192;53.596;10.166;2023-07-08T08:22:01;31.40;37.40
16172;DHT22;8192;53.596;10.166;2023-07-08T08:24:28;31.00;39.30
16172;DHT22;8192;53.596;10.166;2023-07-08T08:26:56;31.00;37.30
16172;DHT22;8192;53.596;10.166;2023-07-08T08:29:23;30.40;38.10
16172;DHT22;8192;53.596;10.166;2023-07-08T08:31:51;30.50;37.30
16172;DHT22;8192;53.596;10.166;2023-07-08T08:34:20;30.60;37.40
16172;DHT22;8192;53.596;10.166;2023-07-08T08:36:47;30.70;36.60
16172;DHT22;8192;53.596;10.166;2023-07-08T08:39:14;30.50;36.80
16172;DHT22;8192;53.596;10.166;2023-07-08T08:41:42;30.30;39.10
16172;DHT22;8192;53.596;10.166;2023-07-08T08:44:15;30.70;39.30
16172;DHT22;8192;53.596;10.166;2023-07-08T08:46:48;31.20;37.50
16172;DHT22;8192;53.596;10.166;2023-07-08T08:49:21;31.40;35.50
16172;DHT22;8192;53.596;10.166;2023-07-08T08:51:50;31.40;34.80
16172;DHT22;8192;53.596;10.166;2023-07-08T08:54:17;30.80;35.30
16172;DHT22;8192;53.596;10.166;2023-07-08T08:56:51;30.30;36.80
16172;DHT22;8192;53.596;10.166;2023-07-08T08:59:27;29.60;38.50
16172;DHT22;8192;53.596;10.166;2023-07-08T09:01:57;28.90;42.00
16172;DHT22;8192;53.596;10.166;2023-07-08T09:04:29;28.40;39.20
16172;DHT22;8192;53.596;10.166;2023-07-08T09:07:07;27.70;43.10
16172;DHT22;8192;53.596;10.166;2023-07-08T09:09:45;27.10;46.60
16172;DHT22;8192;53.596;10.166;2023-07-08T09:12:17;26.90;43.50
16172;DHT22;8192;53.596;10.166;2023-07-08T09:14:47;26.70;46.00
16172;DHT22;8192;53.596;10.166;2023-07-08T09:17:20;26.60;46.00
16172;DHT22;8192;53.596;10.166;2023-07-08T09:19:53;26.50;45.30
16172;DHT22;8192;53.596;10.166;2023-07-08T09:22:28;26.30;44.90
16172;DHT22;8192;53.596;10.166;2023-07-08T09:25:01;26.40;45.40
16172;DHT22;8192;53.596;10.166;2023-07-08T09:27:31;26.30;47.40
16172;DHT22;8192;53.596;10.166;2023-07-08T09:29:59;26.30;46.20
16172;DHT22;8192;53.596;10.166;2023-07-08T09:32:27;26.30;46.00
16172;DHT22;8192;53.596;10.166;2023-07-08T09:34:57;26.30;47.50
16172;DHT22;8192;53.596;10.166;2023-07-08T09:37:30;26.40;46.00
16172;DHT22;8192;53.596;10.166;2023-07-08T09:40:00;26.60;48.40
16172;DHT22;8192;53.596;10.166;2023-07-08T09:42:29;26.60;44.80
16172;DHT22;8192;53.596;10.166;2023-07-08T09:45:00;26.70;45.40
16172;DHT22;8192;53.596;10.166;2023-07-08T09:47:34;26.70;45.80
16172;DHT22;8192;53.596;10.166;2023-07-08T09:50:04;26.80;46.90
16172;DHT22;8192;53.596;10.166;2023-07-08T09:52:33;26.80;44.60
16172;DHT22;8192;53.596;10.166;2023-07-08T09:55:00;26.90;46.50
16172;DHT22;8192;53.596;10.166;2023-07-08T09:57:30;27.00;46.70
16172;DHT22;8192;53.596;10.166;2023-07-08T10:00:02;26.70;45.40
16172;DHT22;8192;53.596;10.166;2023-07-08T10:02:32;26.70;44.60
16172;DHT22;8192;53.596;10.166;2023-07-08T10:05:13;26.70;48.50
16172;DHT22;8192;53.596;10.166;2023-07-08T10:07:42;26.80;44.60
16172;DHT22;8192;53.596;10.166;2023-07-08T10:10:21;26.90;45.00
16172;DHT22;8192;53.596;10.166;2023-07-08T10:12:55;27.10;47.40
16172;DHT22;8192;53.596;10.166;2023-07-08T10:15:29;27.30;43.40
16172;DHT22;8192;53.596;10.166;2023-07-08T10:17:57;27.20;44.10
16172;DHT22;8192;53.596;10.166;2023-07-08T10:20:34;27.10;44.40
16172;DHT22;8192;53.596;10.166;2023-07-08T10:23:13;26.80;45.40
16172;DHT22;8192;53.596;10.166;2023-07-08T10:25:46;27.00;45.10
16172;DHT22;8192;53.596;10.166;2023-07-08T10:28:29;27.10;46.10
16172;DHT22;8192;53.596;10.166;2023-07-08T10:31:11;26.90;46.10
16172;DHT22;8192;53.596;10.166;2023-07-08T10:33:59;26.90;44.60
16172;DHT22;8192;53.596;10.166;2023-07-08T10:36:41;27.10;44.30
16172;DHT22;8192;53.596;10.166;2023-07-08T10:39:33;27.30;44.30
16172;DHT22;8192;53.596;10.166;2023-07-08T10:42:15;27.30;45.10
16172;DHT22;8192;53.596;10.166;2023-07-08T10:44:52;27.20;46.60
16172;DHT22;8192;53.596;10.166;2023-07-08T10:47:36;27.00;42.60
16172;DHT22;8192;53.596;10.166;2023-07-08T10:50:20;27.00;45.60
16172;DHT22;8192;53.596;10.166;2023-07-08T10:53:00;27.30;42.80
16172;DHT22;8192;53.596;10.166;2023-07-08T10:55:35;27.30;43.10
16172;DHT22;8192;53.596;10.166;2023-07-08T10:58:20;27.20;44.00
16172;DHT22;8192;53.596;10.166;2023-07-08T11:00:58;27.30;44.20
16172;DHT22;8192;53.596;10.166;2023-07-08T11:04:01;27.30;44.10
16172;DHT22;8192;53.596;10.166;2023-07-08T11:06:41;27.30;44.80
16172;DHT22;8192;53.596;10.166;2023-07-08T11:09:13;27.60;44.50
16172;DHT22;8192;53.596;10.166;2023-07-08T11:11:47;27.70;44.40
16172;DHT22;8192;53.596;10.166;2023-07-08T11:14:20;27.90;42.80
16172;DHT22;8192;53.596;10.166;2023-07-08T11:16:51;27.90;42.10
16172;DHT22;8192;53.596;10.166;2023-07-08T11:19:25;27.90;42.60
16172;DHT22;8192;53.596;10.166;2023-07-08T11:21:54;27.80;42.90
16172;DHT22;8192;53.596;10.166;2023-07-08T11:24:28;27.90;43.20
16172;DHT22;8192;53.596;10.166;2023-07-08T11:27:01;27.90;42.30
16172;DHT22;8192;53.596;10.166;2023-07-08T11:29:36;27.80;42.30
16172;DHT22;8192;53.596;10.166;2023-07-08T11:32:05;27.90;42.30
16172;DHT22;8192;53.596;10.166;2023-07-08T11:34:41;28.00;40.10
16172;DHT22;8192;53.596;10.166;2023-07-08T11:37:10;27.90;42.00
16172;DHT22;8192;53.596;10.166;2023-07-08T11:39:40;27.90;41.00
16172;DHT22;8192;53.596;10.166;2023-07-08T11:42:18;27.80;42.70
16172;DHT22;8192;53.596;10.166;2023-07-08T11:44:49;28.00;42.90
16172;DHT22;8192;53.596;10.166;2023-07-08T11:47:20;27.90;43.00
16172;DHT22;8192;53.596;10.166;2023-07-08T11:49:51;28.10;42.30
16172;DHT22;8192;53.596;10.166;2023-07-08T11:52:20;28.20;41.10
16172;DHT22;8192;53.596;10.166;2023-07-08T11:54:56;28.30;41.70
16172;DHT22;8192;53.596;10.166;2023-07-08T11:57:28;28.20;40.60
16172;DHT22;8192;53.596;10.166;2023-07-08T12:00:17;28.20;40.80
16172;DHT22;8192;53.596;10.166;2023-07-08T12:02:51;28.30;41.30
16172;DHT22;8192;53.596;10.166;2023-07-08T12:05:32;28.40;39.20
16172;DHT22;8192;53.596;10.166;2023-07-08T12:08:00;28.40;41.80
16172;DHT22;8192;53.596;10.166;2023-07-08T12:10:33;28.60;40.50
16172;DHT22;8192;53.596;10.166;2023-07-08T12:13:02;28.70;40.00
16172;DHT22;8192;53.596;10.166;2023-07-08T12:15:30;28.60;41.00
16172;DHT22;8192;53.596;10.166;2023-07-08T12:18:00;28.50;40.60
16172;DHT22;8192;53.596;10.166;2023-07-08T12:20:32;28.50;37.80
16172;DHT22;8192;53.596;10.166;2023-07-08T12:23:00;28.60;39.90
16172;DHT22;8192;53.596;10.166;2023-07-08T12:25:31;28.70;38.00
16172;DHT22;8192;53.596;10.166;2023-07-08T12:28:00;28.70;37.20
16172;DHT22;8192;53.596;10.166;2023-07-08T12:30:29;28.80;38.50
16172;DHT22;8192;53.596;10.166;2023-07-08T12:32:57;28.80;37.70
16172;DHT22;8192;53.596;10.166;2023-07-08T12:35:26;28.90;37.20
16172;DHT22;8192;53.596;10.166;2023-07-08T12:37:57;28.80;38.10
16172;DHT22;8192;53.596;10.166;2023-07-08T12:40:27;28.70;38.50
16172;DHT22;8192;53.596;10.166;2023-07-08T12:42:55;28.80;40.30
16172;DHT22;8192;53.596;10.166;2023-07-08T12:45:23;29.10;36.90
16172;DHT22;8192;53.596;10.166;2023-07-08T12:47:51;29.20;38.80
16172;DHT22;8192;53.596;10.166;2023-07-08T12:50:18;29.00;37.40
16172;DHT22;8192;53.596;10.166;2023-07-08T12:52:46;29.10;37.50
16172;DHT22;8192;53.596;10.166;2023-07-08T12:55:15;29.40;36.40
16172;DHT22;8192;53.596;10.166;2023-07-08T12:57:47;29.40;36.40
16172;DHT22;8192;53.596;10.166;2023-07-08T13:00:18;29.30;38.00
16172;DHT22;8192;53.596;10.166;2023-07-08T13:02:49;29.50;35.40
16172;DHT22;8192;53.596;10.166;2023-07-08T13:05:20;29.40;34.90
16172;DHT22;8192;53.596;10.166;2023-07-08T13:07:47;29.40;38.20
16172;DHT22;8192;53.596;10.166;2023-07-08T13:10:21;29.50;35.80
16172;DHT22;8192;53.596;10.166;2023-07-08T13:12:53;29.70;35.50
16172;DHT22;8192;53.596;10.166;2023-07-08T13:15:24;29.70;34.60
16172;DHT22;8192;53.596;10.166;2023-07-08T13:17:54;29.50;36.70
16172;DHT22;8192;53.596;10.166;2023-07-08T13:20:21;29.40;36.30
16172;DHT22;8192;53.596;10.166;2023-07-08T13:22:52;29.60;37.90
16172;DHT22;8192;53.596;10.166;2023-07-08T13:25:32;29.40;36.10
16172;DHT22;8192;53.596;10.166;2023-07-08T13:28:00;29.50;34.10
16172;DHT22;8192;53.596;10.166;2023-07-08T13:30:29;29.50;34.70
16172;DHT22;8192;53.596;10.166;2023-07-08T13:32:58;29.50;34.80
16172;DHT22;8192;53.596;10.166;2023-07-08T13:35:34;29.50;35.00
16172;DHT22;8192;53.596;10.166;2023-07-08T13:38:02;29.70;35.70
16172;DHT22;8192;53.596;10.166;2023-07-08T13:40:31;29.70;36.90
16172;DHT22;8192;53.596;10.166;2023-07-08T13:42:59;29.90;34.40
16172;DHT22;8192;53.596;10.166;2023-07-08T13:45:30;30.00;34.70
16172;DHT22;8192;53.596;10.166;2023-07-08T13:48:02;30.30;34.30
16172;DHT22;8192;53.596;10.166;2023-07-08T13:50:38;30.40;34.10
16172;DHT22;8192;53.596;10.166;2023-07-08T13:53:20;30.50;35.60
16172;DHT22;8192;53.596;10.166;2023-07-08T13:55:57;30.60;33.30
16172;DHT22;8192;53.596;10.166;2023-07-08T13:58:27;30.80;33.20
16172;DHT22;8192;53.596;10.166;2023-07-08T14:00:55;31.20;31.20
16172;DHT22;8192;53.596;10.166;2023-07-08T14:03:22;31.50;31.00
16172;DHT22;8192;53.596;10.166;2023-07-08T14:05:50;31.80;31.30
16172;DHT22;8192;53.596;10.166;2023-07-08T14:08:17;31.90;30.10
16172;DHT22;8192;53.596;10.166;2023-07-08T14:10:44;32.70;29.70
16172;DHT22;8192;53.596;10.166;2023-07-08T14:13:13;33.30;28.20
16172;DHT22;8192;53.596;10.166;2023-07-08T14:15:40;33.00;27.50
16172;DHT22;8192;53.596;10.166;2023-07-08T14:18:10;33.10;27.20
16172;DHT22;8192;53.596;10.166;2023-07-08T14:20:37;33.20;28.70
16172;DHT22;8192;53.596;10.166;2023-07-08T14:23:04;33.80;29.10
16172;DHT22;8192;53.596;10.166;2023-07-08T14:25:32;34.60;26.80
16172;DHT22;8192;53.596;10.166;2023-07-08T14:27:59;34.90;26.40
16172;DHT22;8192;53.596;10.166;2023-07-08T14:30:29;34.90;27.50
16172;DHT22;8192;53.596;10.166;2023-07-08T14:32:56;34.80;25.80
16172;DHT22;8192;53.596;10.166;2023-07-08T14:35:26;34.60;25.50
16172;DHT22;8192;53.596;10.166;2023-07-08T14:37:54;34.00;27.40
16172;DHT22;8192;53.596;10.166;2023-07-08T14:40:27;34.10;26.90
16172;DHT22;8192;53.596;10.166;2023-07-08T14:42:59;34.40;27.20
16172;DHT22;8192;53.596;10.166;2023-07-08T14:45:30;34.20;26.50
16172;DHT22;8192;53.596;10.166;2023-07-08T14:47:58;34.20;28.00
16172;DHT22;8192;53.596;10.166;2023-07-08T14:50:25;33.60;27.40
16172;DHT22;8192;53.596;10.166;2023-07-08T14:52:55;32.80;28.20
16172;DHT22;8192;53.596;10.166;2023-07-08T14:55:22;32.60;28.50
16172;DHT22;8192;53.596;10.166;2023-07-08T14:57:49;32.70;28.40
16172;DHT22;8192;53.596;10.166;2023-07-08T15:00:17;33.10;30.40
16172;DHT22;8192;53.596;10.166;2023-07-08T15:02:48;33.30;30.00
16172;DHT22;8192;53.596;10.166;2023-07-08T15:05:17;33.10;29.10
16172;DHT22;8192;53.596;10.166;2023-07-08T15:07:47;33.80;27.30
16172;DHT22;8192;53.596;10.166;2023-07-08T15:10:14;33.20;27.70
16172;DHT22;8192;53.596;10.166;2023-07-08T15:12:41;33.10;31.10
16172;DHT22;8192;53.596;10.166;2023-07-08T15:15:15;33.30;27.70
16172;DHT22;8192;53.596;10.166;2023-07-08T15:17:42;33.20;28.90
16172;DHT22;8192;53.596;10.166;2023-07-08T15:20:12;33.30;27.10
16172;DHT22;8192;53.596;10.166;2023-07-08T15:22:42;33.20;28.50
16172;DHT22;8192;53.596;10.166;2023-07-08T15:25:10;33.50;28.40
16172;DHT22;8192;53.596;10.166;2023-07-08T15:27:38;33.40;27.50
16172;DHT22;8192;53.596;10.166;2023-07-08T15:30:19;33.30;28.00
16172;DHT22;8192;53.596;10.166;2023-07-08T15:32:46;33.40;27.90
16172;DHT22;8192;53.596;10.166;2023-07-08T15:35:17;33.30;27.50
16172;DHT22;8192;53.596;10.166;2023-07-08T15:37:46;32.80;28.70
16172;DHT22;8192;53.596;10.166;2023-07-08T15:40:15;32.70;30.00
16172;DHT22;8192;53.596;10.166;2023-07-08T23:41:51;18.60;73.70
16172;DHT22;8192;53.596;10.166;2023-07-08T23:44:25;18.40;74.60
16172;DHT22;8192;53.596;10.166;2023-07-08T23:46:53;18.50;74.10